Ana Sayfa
METAR-TAF:

METAR-TAF

Havaalanları :

Mahikeng, Güney Afrika

Enlem: 25-47S, Boylam: 025-32E, yükseklik: 1281 m

Güncel hava durumu gözlemi

Rapor saat 00:00 UTC de 43 dakika önce yapıldı.
Rüzgar güneydoğudan 2 kt
Sıcaklık 22°C
Nem 65%
Basınç 1018 hPa

METAR: FAMM 280000Z AUTO 14002KT //// // ////// 22/15 Q1018

Saat: 02:43 (00:43 UTC)

Tahmin

Rapor saat 09:00 UTC de 15 saat ve 43 dakika önce yapıldı.
Ayın 27'si saat 10 UTC'den ayın 27'si saat 18 UTC'ye kadar geçerli Tahmin
Rüzgar değişken yönden 3 kt
Görüş mesafesi 10 km veya daha fazla
2500 ft yükseklikte parçalı bulutlu
Olasılık 30% :
Geçici
ayın 27'si saat 10 UTC'den ayın 27'si saat 15 UTC'ye kadar
4000 ft yükseklikte az bulutlu, Yükselen kümülüs.
Dönüşüyor
ayın 27'si saat 14 UTC'den ayın 27'si saat 16 UTC'ye kadar
Rüzgar güneybatıdan 8 kt

TAF: FAMM 270900Z 2710/2718 VRB03KT 9999 SCT025 TX30/2713Z TN23/2718Z PROB30 TEMPO 2710/2715 FEW040TCU BECMG 2714/2716 22008KT

4.000'den fazla havaalanı için hava durumu gözlemleri ve tahminleri (METAR ve TAF raporları).

Kullanılabilir istasyonlar harita üzerinde sarı ve kırmızı noktalarla gösterilir.

İstasyonun adını görmek için fareyi noktanın üzerinde gezdirin.

Sonrasında hava gözlem ve tahminlerini görmek için tıklayın.

Haritayı değiştirmek için: yaklaştırmak için siyah artı işaretli yeşil düğmeye ve uzaklaştırmak için de eksi işaretli düğmeye hızla tıklayın; bitişik haritalar için yeşil okları kullanın.


METAR-TAF: